createdAt,value
2017-10-28T00:00:37.441Z,86.51
2017-10-28T00:01:18.008Z,86.22
2017-10-28T00:01:58.595Z,86.22
2017-10-28T00:02:39.277Z,86.12
2017-10-28T00:03:19.871Z,86.51
2017-10-28T00:04:00.474Z,86.03
2017-10-28T00:04:41.073Z,86.51
2017-10-28T00:05:21.652Z,86.22
2017-10-28T00:06:02.251Z,86.74
2017-10-28T00:06:42.857Z,86.69
2017-10-28T00:07:23.477Z,86.74
2017-10-28T00:08:04.071Z,86.41
2017-10-28T00:08:44.714Z,86.41
2017-10-28T00:09:25.291Z,86.22
2017-10-28T00:10:05.895Z,86.12
2017-10-28T00:10:46.545Z,86.26
2017-10-28T00:11:27.138Z,86.83
2017-10-28T00:12:07.705Z,86.45
2017-10-28T00:12:48.298Z,86.45
2017-10-28T00:13:28.898Z,86.36
2017-10-28T00:14:09.511Z,86.55
2017-10-28T00:14:50.085Z,86.36
2017-10-28T00:15:30.679Z,86.45
2017-10-28T00:16:11.275Z,86.45
2017-10-28T00:16:51.875Z,86.36
2017-10-28T00:17:32.466Z,86.07
2017-10-28T00:18:13.084Z,86.45
2017-10-28T00:18:53.688Z,86.16
2017-10-28T00:19:34.292Z,86.16
2017-10-28T00:20:14.878Z,86.26
2017-10-28T00:20:55.468Z,86.45
2017-10-28T00:21:36.042Z,86.45
2017-10-28T00:22:16.632Z,86.16
2017-10-28T00:22:57.201Z,86.45
2017-10-28T00:23:37.795Z,86.55
2017-10-28T00:24:18.394Z,86.45
2017-10-28T00:24:58.977Z,86.45
2017-10-28T00:25:39.561Z,86.55
2017-10-28T00:26:20.135Z,86.45
2017-10-28T00:27:00.703Z,87.02
2017-10-28T00:27:41.279Z,87.02
2017-10-28T00:28:21.867Z,86.93
2017-10-28T00:29:02.489Z,86.26
2017-10-28T00:29:43.062Z,86.26
2017-10-28T00:30:23.714Z,86.83
2017-10-28T00:31:04.353Z,86.79
2017-10-28T00:31:44.941Z,86.93
2017-10-28T00:32:26.490Z,86.98
2017-10-28T00:33:07.101Z,87.17
2017-10-28T00:33:47.686Z,87.02
2017-10-28T00:34:28.298Z,87.21
2017-10-28T00:35:08.917Z,87.12
2017-10-28T00:35:49.520Z,86.93
2017-10-28T00:36:30.138Z,86.65
2017-10-28T00:37:10.717Z,87.12
2017-10-28T00:37:51.295Z,87.17
2017-10-28T00:38:31.876Z,87.17
2017-10-28T00:39:12.459Z,87.36
2017-10-28T00:39:53.040Z,86.93
2017-10-28T00:40:33.622Z,87.36
2017-10-28T00:41:14.191Z,87.36
2017-10-28T00:41:54.789Z,87.31
2017-10-28T00:42:35.363Z,87.6
2017-10-28T00:43:15.940Z,87.88
2017-10-28T00:43:56.531Z,87.6
2017-10-28T00:44:37.142Z,87.5
2017-10-28T00:45:17.730Z,87.31
2017-10-28T00:45:58.330Z,86.98
2017-10-28T00:46:38.899Z,87.4
2017-10-28T00:47:19.474Z,87.5
2017-10-28T00:48:00.057Z,87.12
2017-10-28T00:48:40.616Z,87.4
2017-10-28T00:49:21.198Z,87.5
2017-10-28T00:50:01.796Z,87.12
2017-10-28T00:50:42.383Z,87.6
2017-10-28T00:51:22.972Z,87.46
2017-10-28T00:52:03.557Z,86.93
2017-10-28T00:52:44.150Z,87.4
2017-10-28T00:53:24.731Z,87.46
2017-10-28T00:54:05.300Z,87.4
2017-10-28T00:54:45.890Z,87.36
2017-10-28T00:55:26.477Z,87.4
2017-10-28T00:56:07.049Z,87.27
2017-10-28T00:56:47.614Z,87.27
2017-10-28T00:57:28.177Z,87.17
2017-10-28T00:58:08.770Z,87.36
2017-10-28T00:58:49.328Z,87.36
2017-10-28T00:59:29.892Z,87.27
2017-10-28T01:00:10.470Z,87.46
2017-10-28T01:00:51.030Z,87.17
2017-10-28T01:01:31.618Z,87.36
2017-10-28T01:02:12.191Z,87.17
2017-10-28T01:02:52.754Z,87.36
2017-10-28T01:03:33.358Z,87.4
2017-10-28T01:04:13.956Z,87.6
2017-10-28T01:04:54.542Z,86.98
2017-10-28T01:05:35.129Z,86.93
2017-10-28T01:06:15.715Z,87.5
2017-10-28T01:06:56.303Z,87.5
2017-10-28T01:07:36.866Z,87.69
2017-10-28T01:08:17.462Z,87.79
2017-10-28T01:08:58.047Z,87.21
2017-10-28T01:09:38.631Z,87.36
2017-10-28T01:11:52.080Z,87.36
2017-10-28T01:12:32.644Z,87.17
2017-10-28T01:13:13.200Z,86.98
2017-10-28T01:13:53.792Z,87.31
2017-10-28T01:14:34.410Z,87.21
2017-10-28T01:15:14.959Z,86.79
2017-10-28T01:15:55.514Z,87.5
2017-10-28T01:16:36.134Z,86.93
2017-10-28T01:17:16.738Z,87.21
2017-10-28T01:17:57.375Z,87.31
2017-10-28T01:18:37.927Z,87.17
2017-10-28T01:19:18.508Z,87.17
2017-10-28T01:19:59.101Z,87.27
2017-10-28T01:20:39.708Z,87.07
2017-10-28T01:21:20.518Z,87.55
2017-10-28T01:22:01.362Z,87.17
2017-10-28T01:22:41.986Z,87.17
2017-10-28T01:23:22.850Z,87.17
2017-10-28T01:24:03.418Z,87.07
2017-10-28T01:24:43.979Z,87.07
2017-10-28T01:25:24.551Z,86.69
2017-10-28T01:26:05.123Z,86.98
2017-10-28T01:26:45.695Z,86.98
2017-10-28T01:27:26.269Z,86.98
2017-10-28T01:28:06.837Z,86.98
2017-10-28T01:28:47.399Z,86.98
2017-10-28T01:29:27.981Z,86.79
2017-10-28T01:30:08.592Z,86.98
2017-10-28T01:30:49.536Z,87.12
2017-10-28T01:31:29.959Z,87.07
2017-10-28T01:32:10.604Z,86.6
2017-10-28T01:32:51.180Z,86.98
2017-10-28T01:33:31.791Z,86.79
2017-10-28T01:34:12.402Z,87.02
2017-10-28T01:34:52.953Z,86.36
2017-10-28T01:35:33.517Z,86.41
2017-10-28T01:36:14.109Z,86.65
2017-10-28T01:36:54.697Z,86.16
2017-10-28T01:37:35.262Z,86.36
2017-10-28T01:38:15.853Z,86.32
2017-10-28T01:38:56.433Z,86.36
2017-10-28T01:39:37.017Z,86.36
2017-10-28T01:40:17.569Z,86.32
2017-10-28T01:40:58.181Z,86.45
2017-10-28T01:41:38.754Z,86.03
2017-10-28T01:42:19.305Z,85.84
2017-10-28T01:42:59.886Z,86.32
2017-10-28T01:43:40.523Z,86.03
2017-10-28T01:44:21.128Z,86.22
2017-10-28T01:45:01.788Z,86.32
2017-10-28T01:45:42.368Z,86.41
2017-10-28T01:46:22.963Z,86.98
2017-10-28T01:47:03.586Z,86.98
2017-10-28T01:47:44.179Z,86.45
2017-10-28T01:48:24.787Z,86.12
2017-10-28T01:49:05.366Z,86.41
2017-10-28T01:49:45.947Z,86.51
2017-10-28T01:50:26.524Z,86.69
2017-10-28T01:51:07.071Z,86.69
2017-10-28T01:51:47.646Z,86.98
2017-10-28T01:52:28.229Z,87.17
2017-10-28T01:53:08.801Z,87.46
2017-10-28T01:53:49.392Z,86.98
2017-10-28T01:54:29.988Z,87.93
2017-10-28T01:55:10.555Z,87.74
2017-10-28T01:55:51.141Z,88.31
2017-10-28T01:56:31.705Z,88.7
2017-10-28T01:57:12.286Z,88.7
2017-10-28T01:57:52.873Z,89.26
2017-10-28T01:58:33.473Z,89.36
2017-10-28T01:59:14.087Z,89.84
2017-10-28T01:59:54.689Z,90.12
2017-10-28T02:00:35.280Z,90.41
2017-10-28T02:01:15.872Z,90.31
2017-10-28T02:01:56.522Z,90.41
2017-10-28T02:02:37.092Z,90.5
2017-10-28T02:03:17.664Z,91.08
2017-10-28T02:03:58.441Z,91.08
2017-10-28T02:04:39.035Z,90.89
2017-10-28T02:05:19.644Z,90.98
2017-10-28T02:06:00.200Z,91.27
2017-10-28T02:06:41.520Z,91.08
2017-10-28T02:07:22.107Z,90.89
2017-10-28T02:08:02.683Z,90.6
2017-10-28T02:08:43.248Z,90.22
2017-10-28T02:09:23.810Z,90.7
2017-10-28T02:10:04.365Z,90.12
2017-10-28T02:10:44.939Z,90.22
2017-10-28T02:11:25.527Z,90.31
2017-10-28T02:12:06.093Z,90.89
2017-10-28T02:12:46.665Z,90.98
2017-10-28T02:13:27.234Z,90.79
2017-10-28T02:14:07.810Z,90.7
2017-10-28T02:14:48.389Z,91.08
2017-10-28T02:15:28.962Z,90.6
2017-10-28T02:16:09.594Z,90.12
2017-10-28T02:16:50.166Z,90.41
2017-10-28T02:17:30.749Z,90.41
2017-10-28T02:18:11.323Z,90.5
2017-10-28T02:18:51.889Z,89.94
2017-10-28T02:19:32.462Z,90.12
2017-10-28T02:20:13.044Z,90.03
2017-10-28T02:20:53.610Z,89.65
2017-10-28T02:21:34.172Z,89.75
2017-10-28T02:22:14.744Z,89.46
2017-10-28T02:22:55.348Z,89.65
2017-10-28T02:23:35.939Z,89.55
2017-10-28T02:24:16.523Z,89.46
2017-10-28T02:24:57.093Z,89.46
2017-10-28T02:25:37.662Z,89.36
2017-10-28T02:26:18.212Z,89.36
2017-10-28T02:26:58.825Z,89.75
2017-10-28T02:27:39.414Z,89.26
2017-10-28T02:28:20.000Z,89.46
2017-10-28T02:29:00.583Z,89.46
2017-10-28T02:29:41.146Z,88.98
2017-10-28T02:30:21.728Z,89.26
2017-10-28T02:31:02.311Z,88.98
2017-10-28T02:31:42.893Z,89.17
2017-10-28T02:32:23.502Z,89.07
2017-10-28T02:33:04.111Z,89.07
2017-10-28T02:33:44.679Z,89.36
2017-10-28T02:34:25.260Z,89.36
2017-10-28T02:35:05.830Z,89.07
2017-10-28T02:35:46.422Z,88.79
2017-10-28T02:36:26.996Z,88.89
2017-10-28T02:37:07.549Z,89.17
2017-10-28T02:37:48.140Z,88.89
2017-10-28T02:38:28.712Z,89.26
2017-10-28T02:39:09.293Z,89.65
2017-10-28T02:39:49.866Z,88.98
2017-10-28T02:40:30.467Z,88.79
2017-10-28T02:41:11.036Z,89.17
2017-10-28T02:41:51.628Z,88.89
2017-10-28T02:42:32.199Z,89.36
2017-10-28T02:43:12.778Z,89.36
2017-10-28T02:43:53.388Z,89.07
2017-10-28T02:44:33.964Z,89.26
2017-10-28T02:45:14.572Z,89.55
2017-10-28T02:45:55.215Z,89.36
2017-10-28T02:46:35.800Z,89.36
2017-10-28T02:47:16.393Z,90.03
2017-10-28T02:47:57.008Z,90.22
2017-10-28T02:48:37.608Z,89.94
2017-10-28T02:49:18.183Z,90.03
2017-10-28T02:49:58.784Z,89.94
2017-10-28T02:50:39.395Z,90.03
2017-10-28T02:51:19.991Z,90.31
2017-10-28T02:52:00.584Z,90.12
2017-10-28T02:52:41.163Z,89.65
2017-10-28T02:53:21.738Z,90.03
2017-10-28T02:54:02.298Z,90.7
2017-10-28T02:54:42.898Z,90.03
2017-10-28T02:55:23.469Z,90.12
2017-10-28T02:56:04.063Z,90.22
2017-10-28T02:56:44.627Z,90.6
2017-10-28T02:57:25.184Z,90.03
2017-10-28T02:58:05.752Z,89.84
2017-10-28T02:58:46.320Z,90.03
2017-10-28T02:59:26.941Z,90.03
2017-10-28T03:00:07.506Z,89.55
2017-10-28T03:00:48.087Z,89.26
2017-10-28T03:01:28.645Z,89.17
2017-10-28T03:02:09.211Z,88.89
2017-10-28T03:02:49.797Z,89.36
2017-10-28T03:03:30.346Z,89.17
2017-10-28T03:04:10.933Z,89.36
2017-10-28T03:04:51.507Z,89.65
2017-10-28T03:05:32.077Z,89.17
2017-10-28T03:06:12.672Z,89.36
2017-10-28T03:06:53.505Z,88.79
2017-10-28T03:07:34.082Z,89.07
2017-10-28T03:08:14.664Z,89.36
2017-10-28T03:08:55.261Z,89.65
2017-10-28T03:09:35.812Z,89.36
2017-10-28T03:10:16.409Z,89.36
2017-10-28T03:10:56.980Z,89.94
2017-10-28T03:11:37.703Z,90.03
2017-10-28T03:12:18.321Z,90.03
2017-10-28T03:12:58.914Z,90.5
2017-10-28T03:13:39.466Z,90.41
2017-10-28T03:14:20.023Z,90.12
2017-10-28T03:15:00.609Z,90.7
2017-10-28T03:15:41.167Z,90.6
2017-10-28T03:16:21.747Z,90.6
2017-10-28T03:17:02.333Z,90.7
2017-10-28T03:17:42.929Z,90.6
2017-10-28T03:18:23.545Z,90.89
2017-10-28T03:19:04.161Z,91.36
2017-10-28T03:19:44.778Z,90.98
2017-10-28T03:20:25.337Z,90.89
2017-10-28T03:21:05.915Z,91.65
2017-10-28T03:21:46.484Z,91.74
2017-10-28T03:22:27.047Z,91.55
2017-10-28T03:23:07.657Z,91.65
2017-10-28T03:23:48.227Z,91.74
2017-10-28T03:24:28.822Z,91.46
2017-10-28T03:25:09.418Z,92.13
2017-10-28T03:25:50.014Z,91.74
2017-10-28T03:26:30.585Z,91.94
2017-10-28T03:27:11.161Z,92.32
2017-10-28T03:27:51.747Z,92.22
2017-10-28T03:28:32.315Z,92.41
2017-10-28T03:29:12.890Z,92.69
2017-10-28T03:29:53.456Z,92.5
2017-10-28T03:30:34.034Z,93.17
2017-10-28T03:31:14.588Z,92.6
2017-10-28T03:31:55.147Z,92.69
2017-10-28T03:32:35.729Z,92.69
2017-10-28T03:33:16.307Z,92.69
2017-10-28T03:33:56.857Z,92.79
2017-10-28T03:34:37.426Z,93.46
2017-10-28T03:35:18.032Z,93.46
2017-10-28T03:35:58.591Z,93.27
2017-10-28T03:36:39.158Z,93.03
2017-10-28T03:37:19.729Z,93.7
2017-10-28T03:38:00.307Z,93.79
2017-10-28T03:38:40.867Z,93.51
2017-10-28T03:39:21.448Z,94.32
2017-10-28T03:40:02.034Z,93.46
2017-10-28T03:40:42.605Z,93.41
2017-10-28T03:41:23.198Z,93.32
2017-10-28T03:42:03.759Z,93.6
2017-10-28T03:42:44.339Z,94.08
2017-10-28T03:43:24.926Z,93.41
2017-10-28T03:44:05.507Z,94.27
2017-10-28T03:44:46.075Z,94.27
2017-10-28T03:45:26.646Z,94.37
2017-10-28T03:46:07.225Z,94.27
2017-10-28T03:46:47.798Z,94.84
2017-10-28T03:47:28.353Z,94.65
2017-10-28T03:48:08.920Z,95.12
2017-10-28T03:48:49.485Z,95.12
2017-10-28T03:49:30.045Z,95.41
2017-10-28T03:50:10.619Z,95.41
2017-10-28T03:50:51.196Z,95.32
2017-10-28T03:51:31.759Z,95.03
2017-10-28T03:52:12.330Z,95.03
2017-10-28T03:52:52.906Z,95.12
2017-10-28T03:53:33.494Z,95.03
2017-10-28T03:54:14.071Z,95.12
2017-10-28T03:54:54.633Z,95.32
2017-10-28T03:55:35.212Z,95.32
2017-10-28T03:56:15.790Z,95.41
2017-10-28T03:56:56.366Z,95.22
2017-10-28T03:57:36.915Z,95.03
2017-10-28T03:58:17.519Z,95.79
2017-10-28T03:58:58.107Z,95.79
2017-10-28T03:59:38.668Z,95.12
2017-10-28T04:00:19.243Z,95.22
2017-10-28T04:00:59.825Z,94.93
2017-10-28T04:01:40.394Z,95.03
2017-10-28T04:02:20.962Z,95.03
2017-10-28T04:03:01.521Z,94.74
2017-10-28T04:03:42.101Z,95.22
2017-10-28T04:04:22.696Z,94.93
2017-10-28T04:05:03.263Z,95.32
2017-10-28T04:05:43.829Z,95.7
2017-10-28T04:06:24.405Z,95.89
2017-10-28T04:07:05.005Z,95.7
2017-10-28T04:07:45.578Z,96.08
2017-10-28T04:08:26.145Z,95.32
2017-10-28T04:09:06.706Z,94.93
2017-10-28T04:09:47.295Z,95.12
2017-10-28T04:10:27.853Z,95.22
2017-10-28T04:11:08.416Z,95.32
2017-10-28T04:11:48.999Z,95.12
2017-10-28T04:12:29.584Z,95.03
2017-10-28T04:13:10.159Z,95.03
2017-10-28T04:13:50.724Z,95.03
2017-10-28T04:14:31.288Z,95.12
2017-10-28T04:15:11.877Z,94.84
2017-10-28T04:15:52.450Z,95.03
2017-10-28T04:16:33.016Z,94.65
2017-10-28T04:17:13.570Z,94.74
2017-10-28T04:17:54.167Z,94.74
2017-10-28T04:18:34.745Z,94.74
2017-10-28T04:19:15.322Z,94.74
2017-10-28T04:19:55.937Z,94.84
2017-10-28T04:20:36.518Z,94.37
2017-10-28T04:21:17.077Z,94.46
2017-10-28T04:21:57.659Z,94.27
2017-10-28T04:22:38.242Z,94.56
2017-10-28T04:23:18.822Z,94.37
2017-10-28T04:23:59.390Z,94.27
2017-10-28T04:24:39.966Z,94.41
2017-10-28T04:25:20.547Z,94.46
2017-10-28T04:26:01.116Z,94.37
2017-10-28T04:26:41.695Z,94.46
2017-10-28T04:27:22.301Z,94.56
2017-10-28T04:28:02.869Z,94.56
2017-10-28T04:28:43.442Z,95.03
2017-10-28T04:29:24.049Z,94.74
2017-10-28T04:30:04.667Z,94.56
2017-10-28T04:30:45.246Z,94.56
2017-10-28T04:31:25.818Z,94.17
2017-10-28T04:32:06.389Z,94.17
2017-10-28T04:32:47.003Z,94.65
2017-10-28T04:33:27.629Z,94.17
2017-10-28T04:34:08.220Z,93.55
2017-10-28T04:34:48.810Z,93.27
2017-10-28T04:35:29.376Z,93.6
2017-10-28T04:36:09.959Z,93.27
2017-10-28T04:36:50.516Z,93.79
2017-10-28T04:37:31.106Z,93.41
2017-10-28T04:38:11.673Z,93.37
2017-10-28T04:38:52.274Z,93.22
2017-10-28T04:39:32.855Z,93.74
2017-10-28T04:40:13.436Z,93.55
2017-10-28T04:40:54.014Z,93.41
2017-10-28T04:41:34.585Z,93.17
2017-10-28T04:42:15.151Z,93.27
2017-10-28T04:42:55.729Z,93.41
2017-10-28T04:43:36.320Z,92.55
2017-10-28T04:44:16.905Z,92.55
2017-10-28T04:44:57.476Z,93.32
2017-10-28T04:45:38.080Z,93.41
2017-10-28T04:46:18.667Z,93.41
2017-10-28T04:46:59.238Z,93.37
2017-10-28T04:47:39.832Z,93.46
2017-10-28T04:48:20.417Z,93.22
2017-10-28T04:49:00.992Z,93.27
2017-10-28T04:49:41.560Z,92.89
2017-10-28T04:50:22.148Z,92.5
2017-10-28T04:51:02.722Z,92.32
2017-10-28T04:51:43.311Z,92.69
2017-10-28T04:52:23.911Z,91.84
2017-10-28T04:53:04.533Z,92.08
2017-10-28T04:53:45.125Z,92.13
2017-10-28T04:54:25.729Z,92.69
2017-10-28T04:55:06.314Z,92.36
2017-10-28T04:55:46.930Z,92.6
2017-10-28T04:56:27.516Z,92.6
2017-10-28T04:57:08.093Z,92.55
2017-10-28T04:57:48.673Z,92.18
2017-10-28T04:58:29.275Z,92.36
2017-10-28T04:59:09.850Z,92.18
2017-10-28T04:59:50.419Z,92.6
2017-10-28T05:00:30.994Z,91.74
2017-10-28T05:01:11.585Z,92.32
2017-10-28T05:01:52.169Z,91.84
2017-10-28T05:02:32.748Z,92.13
2017-10-28T05:03:13.335Z,91.84
2017-10-28T05:03:53.910Z,92.13
2017-10-28T05:04:34.498Z,92.03
2017-10-28T05:05:15.102Z,92.22
2017-10-28T05:05:55.735Z,92.03
2017-10-28T05:06:36.323Z,91.74
2017-10-28T05:07:16.912Z,91.65
2017-10-28T05:07:57.503Z,91.65
2017-10-28T05:08:38.084Z,91.74
2017-10-28T05:09:18.681Z,91.65
2017-10-28T05:09:59.297Z,91.65
2017-10-28T05:10:39.890Z,91.17
2017-10-28T05:11:20.489Z,91.27
2017-10-28T05:12:01.093Z,90.79
2017-10-28T05:12:41.699Z,90.6
2017-10-28T05:13:22.288Z,90.5
2017-10-28T05:14:03.002Z,90.7
2017-10-28T05:14:43.614Z,90.41
2017-10-28T05:15:24.248Z,90.7
2017-10-28T05:16:04.866Z,90.5
2017-10-28T05:16:45.461Z,90.31
2017-10-28T05:17:26.064Z,90.22
2017-10-28T05:18:06.661Z,90.41
2017-10-28T05:18:47.267Z,90.7
2017-10-28T05:19:27.862Z,90.6
2017-10-28T05:20:08.446Z,90.6
2017-10-28T05:20:49.030Z,90.31
2017-10-28T05:21:29.607Z,90.6
2017-10-28T05:22:10.198Z,90.12
2017-10-28T05:22:50.760Z,90.12
2017-10-28T05:23:31.328Z,90.22
2017-10-28T05:24:11.926Z,90.22
2017-10-28T05:24:52.517Z,90.5
2017-10-28T05:25:33.088Z,89.84
2017-10-28T05:26:13.677Z,90.22
2017-10-28T05:26:54.301Z,90.7
2017-10-28T05:27:34.873Z,90.31
2017-10-28T05:28:15.432Z,90.79
2017-10-28T05:28:56.003Z,90.41
2017-10-28T05:29:36.591Z,90.5
2017-10-28T05:30:17.181Z,89.55
2017-10-28T05:30:57.766Z,89.75
2017-10-28T05:31:38.340Z,89.26
2017-10-28T05:32:18.921Z,89.36
2017-10-28T05:32:59.491Z,89.46
2017-10-28T05:33:40.080Z,89.36
2017-10-28T05:34:20.654Z,89.46
2017-10-28T05:35:01.253Z,89.07
2017-10-28T05:35:41.850Z,89.36
2017-10-28T05:36:22.427Z,89.26
2017-10-28T05:37:03.002Z,88.79
2017-10-28T05:37:43.595Z,89.07
2017-10-28T05:38:24.214Z,89.07
2017-10-28T05:39:04.802Z,89.07
2017-10-28T05:39:45.379Z,88.89
2017-10-28T05:40:25.959Z,89.36
2017-10-28T05:41:06.550Z,89.36
2017-10-28T05:41:47.132Z,89.36
2017-10-28T05:42:27.731Z,89.26
2017-10-28T05:43:08.736Z,89.07
2017-10-28T05:43:49.410Z,88.89
2017-10-28T05:44:30.021Z,89.17
2017-10-28T05:45:10.616Z,89.07
2017-10-28T05:45:51.300Z,88.98
2017-10-28T05:46:32.055Z,89.26
2017-10-28T05:47:12.667Z,88.89
2017-10-28T05:47:53.231Z,89.26
2017-10-28T05:48:33.826Z,89.17
2017-10-28T05:49:14.420Z,89.36
2017-10-28T05:49:54.992Z,89.17
2017-10-28T05:50:35.555Z,88.79
2017-10-28T05:51:16.131Z,88.98
2017-10-28T05:51:56.707Z,88.6
2017-10-28T05:52:37.297Z,88.89
2017-10-28T05:53:17.862Z,88.79
2017-10-28T05:53:58.451Z,88.51
2017-10-28T05:54:39.030Z,88.7
2017-10-28T05:55:19.626Z,88.98
2017-10-28T05:56:00.193Z,88.89
2017-10-28T05:56:40.775Z,88.89
2017-10-28T05:57:21.352Z,88.51
2017-10-28T05:58:01.913Z,88.31
2017-10-28T05:58:42.492Z,88.31
2017-10-28T05:59:23.075Z,88.79
2017-10-28T06:00:03.663Z,88.41
2017-10-28T06:00:44.257Z,88.31
2017-10-28T06:01:24.937Z,88.7
2017-10-28T06:02:05.506Z,88.79
2017-10-28T06:02:46.080Z,88.79
2017-10-28T06:03:26.733Z,88.6
2017-10-28T06:04:07.305Z,88.79
2017-10-28T06:04:47.915Z,88.98
2017-10-28T06:05:28.487Z,88.7
2017-10-28T06:06:09.060Z,88.51
2017-10-28T06:06:49.656Z,88.51
2017-10-28T06:07:30.235Z,88.98
2017-10-28T06:08:10.821Z,89.36
2017-10-28T06:08:51.391Z,89.36
2017-10-28T06:09:31.952Z,89.36
2017-10-28T06:10:12.551Z,89.36
2017-10-28T06:10:53.132Z,90.12
2017-10-28T06:11:33.720Z,89.46
2017-10-28T06:12:14.287Z,90.03
2017-10-28T06:12:54.864Z,90.03
2017-10-28T06:13:35.434Z,90.6
2017-10-28T06:14:15.999Z,90.5
2017-10-28T06:14:56.579Z,90.41
2017-10-28T06:15:37.162Z,90.22
2017-10-28T06:16:17.733Z,90.46
2017-10-28T06:16:58.387Z,90.36
2017-10-28T06:17:38.969Z,90.36
2017-10-28T06:18:19.542Z,90.36
2017-10-28T06:19:00.124Z,90.5
2017-10-28T06:19:40.714Z,90.65
2017-10-28T06:20:21.377Z,90.75
2017-10-28T06:21:01.993Z,90.46
2017-10-28T06:21:42.580Z,90.56
2017-10-28T06:22:23.191Z,90.65
2017-10-28T06:23:03.762Z,91.36
2017-10-28T06:23:44.337Z,91.08
2017-10-28T06:24:24.918Z,90.46
2017-10-28T06:25:05.498Z,90.46
2017-10-28T06:25:46.059Z,91.03
2017-10-28T06:26:26.639Z,91.03
2017-10-28T06:27:07.211Z,91.03
2017-10-28T06:27:47.773Z,91.7
2017-10-28T06:28:28.339Z,91.51
2017-10-28T06:29:09.047Z,91.41
2017-10-28T06:29:49.646Z,91.41
2017-10-28T06:30:30.245Z,91.51
2017-10-28T06:31:10.816Z,91.7
2017-10-28T06:31:51.401Z,91.79
2017-10-28T06:32:31.991Z,91.89
2017-10-28T06:33:12.543Z,92.08
2017-10-28T06:33:53.116Z,91.79
2017-10-28T06:34:33.713Z,91.6
2017-10-28T06:35:14.279Z,91.6
2017-10-28T06:35:54.850Z,91.41
2017-10-28T06:36:35.395Z,91.51
2017-10-28T06:37:15.973Z,91.55
2017-10-28T06:37:56.549Z,91.46
2017-10-28T06:38:37.152Z,91.65
2017-10-28T06:39:17.732Z,91.41
2017-10-28T06:39:58.333Z,91.65
2017-10-28T06:40:38.909Z,91.27
2017-10-28T06:41:19.561Z,90.98
2017-10-28T06:42:00.140Z,90.94
2017-10-28T06:42:40.724Z,91.55
2017-10-28T06:43:21.340Z,91.65
2017-10-28T06:44:01.917Z,91.55
2017-10-28T06:44:42.492Z,90.75
2017-10-28T06:45:23.091Z,91.03
2017-10-28T06:46:03.654Z,90.89
2017-10-28T06:46:44.223Z,90.98
2017-10-28T06:47:24.817Z,90.89
2017-10-28T06:48:05.402Z,90.7
2017-10-28T06:48:46.043Z,90.7
2017-10-28T06:49:26.587Z,90.98
2017-10-28T06:50:07.153Z,90.79
2017-10-28T06:50:47.968Z,90.6
2017-10-28T06:51:29.005Z,90.41
2017-10-28T06:52:09.579Z,90.6
2017-10-28T06:52:50.151Z,90.79
2017-10-28T06:53:30.718Z,90.5
2017-10-28T06:54:11.302Z,90.22
2017-10-28T06:54:51.993Z,90.41
2017-10-28T06:55:32.561Z,89.75
2017-10-28T06:56:13.145Z,89.94
2017-10-28T06:56:53.711Z,90.08
2017-10-28T06:57:34.298Z,90.6
2017-10-28T06:58:14.867Z,90.36
2017-10-28T06:58:55.476Z,89.98
2017-10-28T06:59:36.077Z,89.79
2017-10-28T07:00:16.731Z,89.89
2017-10-28T07:00:57.297Z,89.79
2017-10-28T07:01:37.886Z,89.61
2017-10-28T07:02:18.478Z,89.61
2017-10-28T07:03:06.426Z,90.08
2017-10-28T07:03:46.996Z,89.98
2017-10-28T07:04:27.614Z,90.46
2017-10-28T07:05:08.221Z,90.17
2017-10-28T07:05:48.799Z,90.03
2017-10-28T07:06:29.405Z,90.08
2017-10-28T07:07:09.986Z,89.98
2017-10-28T07:07:50.533Z,90.17
2017-10-28T07:08:31.133Z,89.84
2017-10-28T07:09:11.702Z,89.61
2017-10-28T07:09:52.252Z,90.08
2017-10-28T07:10:32.843Z,89.98
2017-10-28T07:11:13.430Z,90.22
2017-10-28T07:11:53.998Z,89.55
2017-10-28T07:12:34.582Z,89.75
2017-10-28T07:13:15.171Z,89.17
2017-10-28T07:13:55.739Z,89.51
2017-10-28T07:14:36.327Z,89.51
2017-10-28T07:15:16.874Z,89.41
2017-10-28T07:15:57.500Z,89.17
2017-10-28T07:16:38.074Z,89.55
2017-10-28T07:17:18.681Z,89.65
2017-10-28T07:17:59.474Z,89.26
2017-10-28T07:18:39.861Z,89.55
2017-10-28T07:19:20.425Z,89.75
2017-10-28T07:20:00.987Z,89.07
2017-10-28T07:20:41.548Z,89.26
2017-10-28T07:21:22.109Z,88.89
2017-10-28T07:22:02.664Z,88.98
2017-10-28T07:22:43.261Z,88.6
2017-10-28T07:23:23.849Z,88.6
2017-10-28T07:24:04.420Z,88.75
2017-10-28T07:24:44.989Z,88.27
2017-10-28T07:25:25.602Z,88.89
2017-10-28T07:26:06.237Z,88.65
2017-10-28T07:26:46.797Z,88.51
2017-10-28T07:27:27.364Z,88.65
2017-10-28T07:28:07.952Z,88.27
2017-10-28T07:28:48.581Z,88.65
2017-10-28T07:29:29.166Z,88.56
2017-10-28T07:30:09.912Z,88.46
2017-10-28T07:30:50.511Z,88.46
2017-10-28T07:31:31.060Z,88.65
2017-10-28T07:32:11.647Z,88.7
2017-10-28T07:32:52.233Z,88.93
2017-10-28T07:33:32.827Z,88.46
2017-10-28T07:34:13.405Z,88.75
2017-10-28T07:34:54.038Z,88.12
2017-10-28T07:35:34.640Z,87.98
2017-10-28T07:36:15.252Z,87.79
2017-10-28T07:36:55.824Z,87.7
2017-10-28T07:37:36.396Z,87.51
2017-10-28T07:38:16.972Z,88.08
2017-10-28T07:38:57.578Z,87.98
2017-10-28T07:39:38.142Z,87.51
2017-10-28T07:40:18.714Z,88.12
2017-10-28T07:40:59.320Z,87.46
2017-10-28T07:41:39.894Z,87.36
2017-10-28T07:42:20.468Z,87.36
2017-10-28T07:43:01.047Z,87.84
2017-10-28T07:43:41.635Z,87.27
2017-10-28T07:44:22.234Z,87.27
2017-10-28T07:45:02.814Z,87.07
2017-10-28T07:45:43.379Z,86.88
2017-10-28T07:46:23.955Z,86.69
2017-10-28T07:47:04.530Z,87.27
2017-10-28T07:47:45.101Z,86.6
2017-10-28T07:48:25.661Z,86.6
2017-10-28T07:49:06.224Z,86.69
2017-10-28T07:49:46.801Z,86.69
2017-10-28T07:50:27.397Z,86.51
2017-10-28T07:51:08.009Z,86.22
2017-10-28T07:51:48.567Z,86.51
2017-10-28T07:52:29.170Z,85.93
2017-10-28T07:53:09.769Z,86.03
2017-10-28T07:53:50.325Z,86.22
2017-10-28T07:54:30.909Z,86.41
2017-10-28T07:55:11.474Z,86.6
2017-10-28T07:55:52.064Z,86.22
2017-10-28T07:56:32.647Z,86.22
2017-10-28T07:57:13.241Z,86.03
2017-10-28T07:57:53.824Z,86.12
2017-10-28T07:58:34.395Z,86.12
2017-10-28T07:59:14.967Z,86.03
2017-10-28T07:59:55.542Z,85.74
2017-10-28T08:00:36.133Z,85.64
2017-10-28T08:01:16.691Z,85.84
2017-10-28T08:01:57.436Z,85.74
2017-10-28T08:02:38.021Z,85.55
2017-10-28T08:03:18.608Z,85.64
2017-10-28T08:03:59.205Z,85.74
2017-10-28T08:04:39.783Z,85.74
2017-10-28T08:05:20.397Z,86.12
2017-10-28T08:06:00.995Z,85.74
2017-10-28T08:06:41.651Z,85.27
2017-10-28T08:07:22.225Z,85.36
2017-10-28T08:08:02.848Z,85.36
2017-10-28T08:08:43.590Z,85.08
2017-10-28T08:09:24.173Z,85.08
2017-10-28T08:10:04.762Z,84.6
2017-10-28T08:10:45.386Z,84.88
2017-10-28T08:11:26.012Z,85.36
2017-10-28T08:12:06.576Z,85.17
2017-10-28T08:12:47.188Z,85.36
2017-10-28T08:13:27.760Z,85.36
2017-10-28T08:14:08.397Z,85.08
2017-10-28T08:14:49.006Z,84.5
2017-10-28T08:15:29.582Z,84.69
2017-10-28T08:16:10.186Z,84.88
2017-10-28T08:16:50.774Z,84.5
2017-10-28T08:17:31.383Z,84.88
2017-10-28T08:18:11.952Z,85.27
2017-10-28T08:18:52.574Z,85.17
2017-10-28T08:19:33.165Z,85.08
2017-10-28T08:20:13.761Z,84.6
2017-10-28T08:20:54.357Z,84.88
2017-10-28T08:21:34.974Z,84.88
2017-10-28T08:22:15.562Z,84.88
2017-10-28T08:22:56.146Z,84.5
2017-10-28T08:23:36.726Z,84.69
2017-10-28T08:24:17.288Z,84.6
2017-10-28T08:24:57.917Z,84.6
2017-10-28T08:25:38.507Z,84.5
2017-10-28T08:26:19.110Z,84.6
2017-10-28T08:26:59.697Z,84.5
2017-10-28T08:27:40.291Z,84.69
2017-10-28T08:28:20.921Z,84.5
2017-10-28T08:29:01.483Z,84.22
2017-10-28T08:29:42.179Z,84.41
2017-10-28T08:30:22.856Z,84.69
2017-10-28T08:31:03.476Z,84.69
2017-10-28T08:31:44.034Z,84.6
2017-10-28T08:32:24.621Z,84.5
2017-10-28T08:33:05.211Z,84.03
2017-10-28T08:33:45.813Z,84.12
2017-10-28T08:34:27.287Z,83.74
2017-10-28T08:35:07.869Z,83.74
2017-10-28T08:35:48.484Z,84.22
2017-10-28T08:36:29.089Z,84.03
2017-10-28T08:37:09.706Z,83.74
2017-10-28T08:37:50.255Z,83.55
2017-10-28T08:38:30.824Z,83.45
2017-10-28T08:39:11.406Z,83.36
2017-10-28T08:39:51.987Z,83.45
2017-10-28T08:40:32.569Z,83.55
2017-10-28T08:41:13.146Z,83.65
2017-10-28T08:41:53.704Z,82.89
2017-10-28T08:42:34.283Z,82.79
2017-10-28T08:43:14.858Z,82.89
2017-10-28T08:43:55.531Z,83.74
2017-10-28T08:44:36.208Z,83.74
2017-10-28T08:45:16.795Z,83.17
2017-10-28T08:45:57.380Z,82.98
2017-10-28T08:46:37.946Z,83.17